CG Dependable — NOWK — position and weather

sailwx.info

Track history (hours):
 
Tides and Currents Weather Stations Pressure Air Temp Water Temp Dewpoint Dewpoint Depression Visibility Wind Speed Wind Dir Waves Ship Positions

CG Dependable

Last reported at 2017-Dec-02 21:59 UTC. Time now 2017-Dec-14 17:15 UTC.
Position N 25°40' W 079°41'.
Warning: this ship's position is 11 days out of date.

; draft 4 m.

Type: Law enforcement. MMSI: 367294000.

Date/timePositionNaut miles runAvg speedWind from/ knotsBaromVisibWave heightAir tempDewpointWater temp
2017-Dec-02 21:59N 25°40' W 079°41'510.6
2017-Dec-02 21:30N 25°44' W 079°44'611.1
2017-Dec-02 21:00N 25°49' W 079°47'510.7
2017-Dec-02 20:30N 25°53' W 079°51'2 5.0
2017-Dec-02 20:00N 25°54' W 079°53'3 5.9
2017-Dec-02 19:30N 25°51' W 079°54'3 6.0
2017-Dec-02 19:00N 25°54' W 079°53'0 1.0
2017-Dec-02 18:30N 25°54' W 079°52'1 2.7
2017-Dec-02 18:01N 25°53' W 079°54'1 1.2
2017-Dec-02 17:30N 25°53' W 079°53'4 8.3
2017-Dec-02 17:00N 25°52' W 079°49'5 9.7
2017-Dec-02 16:30N 25°54' W 079°44'3 5.6
2017-Dec-02 16:00N 25°55' W 079°41'5 2.9
2017-Dec-02 14:19N 25°52' W 079°38'2 7.3
2017-Dec-02 14:00N 25°51' W 079°40'3 5.4
2017-Dec-02 13:30N 25°54' W 079°40'3 5.3
2017-Dec-02 13:00N 25°57' W 079°40'5 7.4
2017-Dec-02 12:22N 26°01' W 079°40'3 8.7
2017-Dec-02 12:00N 26°04' W 079°40'4 8.7
2017-Dec-02 11:30N 26°09' W 079°40'4 8.5
2017-Dec-02 11:00N 26°13' W 079°39'23 8.2
2017-Dec-02 08:16N 26°35' W 079°41'2 8.3
2017-Dec-02 08:00N 26°37' W 079°42'4 8.3
2017-Dec-02 07:30N 26°41' W 079°44'4 7.1
2017-Dec-02 07:00N 26°45' W 079°45'3 6.0
2017-Dec-02 06:30N 26°48' W 079°45'3 6.8
2017-Dec-02 06:00N 26°51' W 079°44'4 8.0
2017-Dec-02 05:29N 26°55' W 079°43'4 8.1
2017-Dec-02 04:59N 26°59' W 079°44'  
Track history (hours):
 
Tides and Currents Weather Stations Pressure Air Temp Water Temp Dewpoint Dewpoint Depression Visibility Wind Speed Wind Dir Waves Ship Positions

CG Dependable

Last reported at 2017-Dec-02 21:59 UTC. Time now 2017-Dec-14 17:15 UTC.
Position N 25°40' W 079°41'.
Warning: this ship's position is 11 days out of date.

; draft 4 m.

Type: Law enforcement. MMSI: 367294000.

Date/timePositionNaut miles runAvg speedWind from/ knotsBaromVisibWave heightAir tempDewpointWater temp
2017-Dec-02 21:59N 25°40' W 079°41'510.6
2017-Dec-02 21:30N 25°44' W 079°44'611.1
2017-Dec-02 21:00N 25°49' W 079°47'510.7
2017-Dec-02 20:30N 25°53' W 079°51'2 5.0
2017-Dec-02 20:00N 25°54' W 079°53'3 5.9
2017-Dec-02 19:30N 25°51' W 079°54'3 6.0
2017-Dec-02 19:00N 25°54' W 079°53'0 1.0
2017-Dec-02 18:30N 25°54' W 079°52'1 2.7
2017-Dec-02 18:01N 25°53' W 079°54'1 1.2
2017-Dec-02 17:30N 25°53' W 079°53'4 8.3
2017-Dec-02 17:00N 25°52' W 079°49'5 9.7
2017-Dec-02 16:30N 25°54' W 079°44'3 5.6
2017-Dec-02 16:00N 25°55' W 079°41'5 2.9
2017-Dec-02 14:19N 25°52' W 079°38'2 7.3
2017-Dec-02 14:00N 25°51' W 079°40'3 5.4
2017-Dec-02 13:30N 25°54' W 079°40'3 5.3
2017-Dec-02 13:00N 25°57' W 079°40'5 7.4
2017-Dec-02 12:22N 26°01' W 079°40'3 8.7
2017-Dec-02 12:00N 26°04' W 079°40'4 8.7
2017-Dec-02 11:30N 26°09' W 079°40'4 8.5
2017-Dec-02 11:00N 26°13' W 079°39'23 8.2
2017-Dec-02 08:16N 26°35' W 079°41'2 8.3
2017-Dec-02 08:00N 26°37' W 079°42'4 8.3
2017-Dec-02 07:30N 26°41' W 079°44'4 7.1
2017-Dec-02 07:00N 26°45' W 079°45'3 6.0
2017-Dec-02 06:30N 26°48' W 079°45'3 6.8
2017-Dec-02 06:00N 26°51' W 079°44'4 8.0
2017-Dec-02 05:29N 26°55' W 079°43'4 8.1
2017-Dec-02 04:59N 26°59' W 079°44'  

Dump ship's entire track history